createdAt,value
2018-10-01T00:00:57.963Z,63.84
2018-10-01T00:01:57.643Z,63.55
2018-10-01T00:02:57.758Z,63.62
2018-10-01T00:03:57.808Z,63.51
2018-10-01T00:04:57.889Z,63.36
2018-10-01T00:05:58.030Z,63.33
2018-10-01T00:06:57.703Z,63.27
2018-10-01T00:07:57.910Z,63.29
2018-10-01T00:08:57.709Z,63.49
2018-10-01T00:09:57.787Z,62.64
2018-10-01T00:10:57.652Z,62.65
2018-10-01T00:11:57.714Z,62.64
2018-10-01T00:12:57.735Z,62.46
2018-10-01T00:13:57.618Z,62.78
2018-10-01T00:14:57.730Z,62.83
2018-10-01T00:15:57.707Z,62.88
2018-10-01T00:16:57.634Z,62.91
2018-10-01T00:17:57.882Z,63.01
2018-10-01T00:18:57.914Z,63.07
2018-10-01T00:19:57.639Z,62.95
2018-10-01T00:20:57.624Z,62.9
2018-10-01T00:21:58.453Z,62.92
2018-10-01T00:22:58.018Z,63.03
2018-10-01T00:23:57.600Z,63.01
2018-10-01T00:24:57.690Z,62.96
2018-10-01T00:25:57.618Z,62.9
2018-10-01T00:26:57.606Z,62.96
2018-10-01T00:27:57.682Z,62.93
2018-10-01T00:28:57.682Z,62.91
2018-10-01T00:29:57.964Z,62.97
2018-10-01T00:30:57.770Z,63.1
2018-10-01T00:31:57.690Z,63.06
2018-10-01T00:32:57.629Z,63.13
2018-10-01T00:33:57.987Z,63.18
2018-10-01T00:34:57.604Z,63.04
2018-10-01T00:35:57.693Z,63.28
2018-10-01T00:36:57.629Z,63.39
2018-10-01T00:37:57.595Z,63.28
2018-10-01T00:38:57.605Z,63.62
2018-10-01T00:39:57.617Z,63.46
2018-10-01T00:40:57.654Z,63.41
2018-10-01T00:41:57.606Z,63.42
2018-10-01T00:42:57.573Z,63.39
2018-10-01T00:43:57.954Z,63.3
2018-10-01T00:44:57.606Z,63.33
2018-10-01T00:45:57.634Z,63.21
2018-10-01T00:46:57.578Z,63.61
2018-10-01T00:47:57.577Z,63.45
2018-10-01T00:48:57.583Z,63.57
2018-10-01T00:49:57.892Z,63.58
2018-10-01T00:50:57.574Z,63.82
2018-10-01T00:51:57.560Z,63.47
2018-10-01T00:52:57.575Z,63.76
2018-10-01T00:53:57.608Z,63.62
2018-10-01T00:54:57.574Z,63.35
2018-10-01T00:55:57.554Z,63.38
2018-10-01T00:56:57.573Z,63.4
2018-10-01T00:57:57.932Z,63.21
2018-10-01T00:58:57.557Z,63.13
2018-10-01T00:59:57.579Z,62.98
2018-10-01T01:00:57.627Z,62.92
2018-10-01T01:01:57.665Z,62.8
2018-10-01T01:02:57.627Z,62.75
2018-10-01T01:03:57.607Z,62.75
2018-10-01T01:04:57.592Z,62.92
2018-10-01T01:05:57.556Z,62.9
2018-10-01T01:06:57.559Z,62.95
2018-10-01T01:07:57.586Z,62.95
2018-10-01T01:08:57.867Z,62.83
2018-10-01T01:09:57.880Z,63.01
2018-10-01T01:10:57.716Z,63.11
2018-10-01T01:11:57.795Z,63.16
2018-10-01T01:12:57.947Z,63.31
2018-10-01T01:13:57.748Z,63.47
2018-10-01T01:14:57.589Z,63.7
2018-10-01T01:15:57.546Z,63.73
2018-10-01T01:16:57.567Z,63.58
2018-10-01T01:17:57.640Z,63.43
2018-10-01T01:18:57.766Z,63.65
2018-10-01T01:19:57.540Z,63.98
2018-10-01T01:20:57.837Z,63.73
2018-10-01T01:21:57.565Z,64.21
2018-10-01T01:22:57.663Z,63.95
2018-10-01T01:23:57.515Z,63.92
2018-10-01T01:24:57.524Z,63.89
2018-10-01T01:25:57.733Z,64.05
2018-10-01T01:26:57.568Z,63.86
2018-10-01T01:27:57.671Z,63.73
2018-10-01T01:28:57.584Z,63.85
2018-10-01T01:29:57.541Z,63.7
2018-10-01T01:30:58.348Z,63.58
2018-10-01T01:31:57.553Z,63.5
2018-10-01T01:32:57.782Z,63.69
2018-10-01T01:33:57.545Z,63.58
2018-10-01T01:34:57.630Z,63.47
2018-10-01T01:35:57.583Z,63.32
2018-10-01T01:36:57.499Z,63.21
2018-10-01T01:37:57.631Z,63.25
2018-10-01T01:38:57.503Z,63.31
2018-10-01T01:39:57.576Z,63.33
2018-10-01T01:40:57.517Z,63.16
2018-10-01T01:41:57.537Z,63.33
2018-10-01T01:42:57.859Z,63.06
2018-10-01T01:43:57.517Z,63.13
2018-10-01T01:44:57.556Z,63.15
2018-10-01T01:45:57.477Z,62.94
2018-10-01T01:46:57.584Z,63.23
2018-10-01T01:47:57.505Z,63.18
2018-10-01T01:48:57.521Z,62.98
2018-10-01T01:49:57.491Z,63.35
2018-10-01T01:50:57.570Z,63.27
2018-10-01T01:51:57.543Z,63.34
2018-10-01T01:52:57.481Z,63.21
2018-10-01T01:53:57.485Z,63.22
2018-10-01T01:54:57.654Z,63.51
2018-10-01T01:55:57.478Z,63.43
2018-10-01T01:56:57.603Z,63.31
2018-10-01T01:57:57.546Z,63.22
2018-10-01T01:58:57.555Z,63.05
2018-10-01T01:59:57.547Z,63.25
2018-10-01T02:00:57.494Z,63.19
2018-10-01T02:01:57.514Z,63.3
2018-10-01T02:02:57.880Z,63.05
2018-10-01T02:03:57.533Z,63.35
2018-10-01T02:04:57.496Z,63.43
2018-10-01T02:05:57.539Z,63.15
2018-10-01T02:06:57.540Z,63.23
2018-10-01T02:07:57.464Z,63.15
2018-10-01T02:08:57.477Z,63.09
2018-10-01T02:09:57.490Z,63
2018-10-01T02:10:57.510Z,63.06
2018-10-01T02:11:57.463Z,63.18
2018-10-01T02:12:57.487Z,63.32
2018-10-01T02:13:57.471Z,63.14
2018-10-01T02:14:57.469Z,62.56
2018-10-01T02:15:57.463Z,62.64
2018-10-01T02:16:57.464Z,62.82
2018-10-01T02:17:57.475Z,62.72
2018-10-01T02:18:57.490Z,62.61
2018-10-01T02:19:57.461Z,62.68
2018-10-01T02:20:57.477Z,62.91
2018-10-01T02:21:57.460Z,62.93
2018-10-01T02:22:57.459Z,62.91
2018-10-01T02:23:57.469Z,62.94
2018-10-01T02:24:57.501Z,63.11
2018-10-01T02:25:57.568Z,63.25
2018-10-01T02:26:57.546Z,63.33
2018-10-01T02:27:57.571Z,63.35
2018-10-01T02:28:57.501Z,63.09
2018-10-01T02:29:57.536Z,62.94
2018-10-01T02:30:57.537Z,63.2
2018-10-01T02:31:57.442Z,63.28
2018-10-01T02:32:57.448Z,63.38
2018-10-01T02:33:57.452Z,63.28
2018-10-01T02:34:57.696Z,63.31
2018-10-01T02:35:57.464Z,63.35
2018-10-01T02:36:57.484Z,63.24
2018-10-01T02:37:57.438Z,63.61
2018-10-01T02:38:57.443Z,63.58
2018-10-01T02:39:57.415Z,63.52
2018-10-01T02:40:57.469Z,63.56
2018-10-01T02:41:57.426Z,63.68
2018-10-01T02:42:57.469Z,63.93
2018-10-01T02:43:57.399Z,63.96
2018-10-01T02:44:57.427Z,63.97
2018-10-01T02:45:57.628Z,63.69
2018-10-01T02:46:57.684Z,64.21
2018-10-01T02:47:57.416Z,63.99
2018-10-01T02:48:57.687Z,64.04
2018-10-01T02:49:57.848Z,64.07
2018-10-01T02:50:57.429Z,63.91
2018-10-01T02:51:57.621Z,63.94
2018-10-01T02:52:57.488Z,63.97
2018-10-01T02:53:57.462Z,64.04
2018-10-01T02:54:57.465Z,64.04
2018-10-01T02:55:57.933Z,64.01
2018-10-01T02:56:57.478Z,64.43
2018-10-01T02:57:57.460Z,64.49
2018-10-01T02:58:57.569Z,64.51
2018-10-01T02:59:57.450Z,64.36
2018-10-01T03:00:57.511Z,64.32
2018-10-01T03:01:57.417Z,64.46
2018-10-01T03:02:57.397Z,64.24
2018-10-01T03:03:57.415Z,64.48
2018-10-01T03:04:57.780Z,64.42
2018-10-01T03:05:57.462Z,64.64
2018-10-01T03:06:57.385Z,65.05
2018-10-01T03:07:57.440Z,64.77
2018-10-01T03:08:57.618Z,64.69
2018-10-01T03:09:57.474Z,65.48
2018-10-01T03:10:57.386Z,65.25
2018-10-01T03:11:58.582Z,65.28
2018-10-01T03:12:57.371Z,65.28
2018-10-01T03:13:57.397Z,65.13
2018-10-01T03:14:57.445Z,64.95
2018-10-01T03:15:57.403Z,64.83
2018-10-01T03:16:57.493Z,65.71
2018-10-01T03:17:57.380Z,65.85
2018-10-01T03:18:57.412Z,66.07
2018-10-01T03:19:57.409Z,66.55
2018-10-01T03:20:57.386Z,66.24
2018-10-01T03:21:57.423Z,66.04
2018-10-01T03:22:57.520Z,66.44
2018-10-01T03:23:57.416Z,66.32
2018-10-01T03:24:57.632Z,65.78
2018-10-01T03:25:57.381Z,66.64
2018-10-01T03:26:57.406Z,66.47
2018-10-01T03:27:57.376Z,66.58
2018-10-01T03:28:57.416Z,66.61
2018-10-01T03:29:57.349Z,66.54
2018-10-01T03:30:57.354Z,66.29
2018-10-01T03:31:57.367Z,66.17
2018-10-01T03:32:57.402Z,66.54
2018-10-01T03:33:57.384Z,66.76
2018-10-01T03:34:57.336Z,66.47
2018-10-01T03:35:57.391Z,67.41
2018-10-01T03:36:57.360Z,67.22
2018-10-01T03:37:57.411Z,67.56
2018-10-01T03:38:57.380Z,66.92
2018-10-01T03:39:57.368Z,67.32
2018-10-01T03:40:57.338Z,67.12
2018-10-01T03:41:57.346Z,66.81
2018-10-01T03:42:57.447Z,67.13
2018-10-01T03:43:57.378Z,66.94
2018-10-01T03:44:57.368Z,67.1
2018-10-01T03:45:57.367Z,67.13
2018-10-01T03:46:57.425Z,66.89
2018-10-01T03:47:57.435Z,66.67
2018-10-01T03:48:57.317Z,67
2018-10-01T03:49:57.431Z,67.42
2018-10-01T03:50:57.806Z,67.01
2018-10-01T03:51:57.343Z,66.54
2018-10-01T03:52:57.425Z,66.33
2018-10-01T03:53:57.325Z,66.34
2018-10-01T03:54:57.528Z,66.26
2018-10-01T03:55:57.327Z,66.24
2018-10-01T03:56:57.372Z,66.78
2018-10-01T03:57:57.351Z,66.93
2018-10-01T03:58:57.309Z,66.83
2018-10-01T03:59:57.541Z,66.59
2018-10-01T04:00:57.328Z,66.71
2018-10-01T04:01:57.379Z,66.93
2018-10-01T04:02:57.445Z,66.86
2018-10-01T04:03:57.511Z,66.79
2018-10-01T04:04:57.302Z,67.08
2018-10-01T04:05:57.402Z,66.92
2018-10-01T04:06:57.313Z,67.12
2018-10-01T04:07:57.293Z,67.22
2018-10-01T04:08:57.514Z,67.17
2018-10-01T04:09:57.404Z,67.4
2018-10-01T04:10:57.300Z,67.03
2018-10-01T04:11:57.577Z,67.26
2018-10-01T04:12:57.401Z,66.9
2018-10-01T04:13:57.292Z,67.09
2018-10-01T04:14:57.667Z,67.46
2018-10-01T04:15:57.304Z,67.02
2018-10-01T04:16:57.317Z,67.02
2018-10-01T04:17:57.363Z,67
2018-10-01T04:18:57.283Z,67.32
2018-10-01T04:19:57.339Z,66.82
2018-10-01T04:20:57.337Z,67.24
2018-10-01T04:21:57.319Z,67.3
2018-10-01T04:22:57.295Z,67.26
2018-10-01T04:23:57.365Z,67.03
2018-10-01T04:24:57.393Z,66.97
2018-10-01T04:25:57.272Z,67.1
2018-10-01T04:26:57.410Z,67.08
2018-10-01T04:27:57.365Z,66.89
2018-10-01T04:28:57.441Z,66.57
2018-10-01T04:29:57.301Z,66.47
2018-10-01T04:30:57.458Z,66.35
2018-10-01T04:31:57.420Z,66.54
2018-10-01T04:32:57.359Z,66.17
2018-10-01T04:33:57.330Z,66.56
2018-10-01T04:34:57.498Z,66.64
2018-10-01T04:35:57.281Z,67.46
2018-10-01T04:36:57.376Z,67.14
2018-10-01T04:37:57.329Z,66.56
2018-10-01T04:38:57.258Z,66.48
2018-10-01T04:39:57.296Z,66.2
2018-10-01T04:40:57.536Z,66.4
2018-10-01T04:41:57.556Z,66.22
2018-10-01T04:42:57.374Z,66.11
2018-10-01T04:43:58.275Z,66.38
2018-10-01T04:44:57.666Z,66.41
2018-10-01T04:45:57.316Z,66.56
2018-10-01T04:46:57.248Z,66.44
2018-10-01T04:47:57.582Z,66.24
2018-10-01T04:48:57.361Z,66.58
2018-10-01T04:49:57.283Z,66.54
2018-10-01T04:50:57.303Z,66.38
2018-10-01T04:51:57.287Z,66.14
2018-10-01T04:52:57.240Z,66.16
2018-10-01T04:53:57.297Z,66.08
2018-10-01T04:54:57.248Z,66.58
2018-10-01T04:55:57.284Z,66.88
2018-10-01T04:56:57.392Z,66.57
2018-10-01T04:57:57.309Z,66.46
2018-10-01T04:58:57.301Z,66.75
2018-10-01T04:59:57.252Z,66.54
2018-10-01T05:00:57.246Z,66.63
2018-10-01T05:01:57.338Z,66.77
2018-10-01T05:02:57.274Z,66.89
2018-10-01T05:03:57.443Z,66.6
2018-10-01T05:04:57.244Z,66.81
2018-10-01T05:05:57.303Z,66.9
2018-10-01T05:06:57.260Z,66.91
2018-10-01T05:07:57.243Z,66.62
2018-10-01T05:08:57.244Z,66.92
2018-10-01T05:09:57.232Z,66.95
2018-10-01T05:10:57.390Z,66.89
2018-10-01T05:11:57.223Z,67.08
2018-10-01T05:12:58.366Z,66.86
2018-10-01T05:13:57.451Z,66.45
2018-10-01T05:14:57.213Z,66.91
2018-10-01T05:15:57.319Z,66.91
2018-10-01T05:16:57.378Z,66.57
2018-10-01T05:17:57.227Z,66.75
2018-10-01T05:18:57.339Z,67.16
2018-10-01T05:19:57.351Z,67.43
2018-10-01T05:21:57.519Z,66.96
2018-10-01T05:22:57.202Z,67.16
2018-10-01T05:23:57.197Z,67.16
2018-10-01T05:24:57.309Z,67.23
2018-10-01T05:25:57.284Z,67.51
2018-10-01T05:26:57.240Z,67.31
2018-10-01T05:27:57.208Z,67.1
2018-10-01T05:28:57.206Z,67.22
2018-10-01T05:29:57.386Z,67.02
2018-10-01T05:30:57.485Z,67.22
2018-10-01T05:31:57.203Z,66.95
2018-10-01T05:32:57.381Z,67.04
2018-10-01T05:33:57.216Z,66.94
2018-10-01T05:34:57.501Z,67.17
2018-10-01T05:35:57.195Z,66.8
2018-10-01T05:36:57.475Z,67
2018-10-01T05:37:57.554Z,67.41
2018-10-01T05:38:57.247Z,67.12
2018-10-01T05:39:57.179Z,66.86
2018-10-01T05:40:57.231Z,67
2018-10-01T05:41:57.352Z,67.65
2018-10-01T05:42:57.159Z,67.4
2018-10-01T05:43:57.243Z,67.74
2018-10-01T05:44:57.230Z,68.01
2018-10-01T05:45:57.195Z,68.08
2018-10-01T05:46:57.237Z,68.09
2018-10-01T05:47:57.316Z,67.87
2018-10-01T05:48:57.252Z,68.18
2018-10-01T05:49:57.184Z,68.18
2018-10-01T05:50:57.313Z,68.42
2018-10-01T05:51:57.419Z,68.55
2018-10-01T05:52:57.198Z,68.07
2018-10-01T05:53:57.154Z,67.68
2018-10-01T05:54:57.354Z,68.18
2018-10-01T05:55:57.163Z,67.94
2018-10-01T05:56:57.189Z,67.72
2018-10-01T05:57:57.186Z,68.28
2018-10-01T05:58:57.253Z,68.45
2018-10-01T05:59:57.179Z,68.49
2018-10-01T06:00:57.218Z,68.49
2018-10-01T06:01:57.151Z,68.37
2018-10-01T06:02:57.392Z,67.96
2018-10-01T06:03:57.139Z,68.5
2018-10-01T06:04:57.403Z,68.56
2018-10-01T06:05:57.165Z,68.63
2018-10-01T06:06:57.147Z,68.6
2018-10-01T06:07:57.201Z,68.54
2018-10-01T06:08:57.185Z,68.16
2018-10-01T06:09:57.293Z,68.03
2018-10-01T06:10:57.272Z,68.43
2018-10-01T06:11:57.191Z,68.86
2018-10-01T06:12:57.251Z,68.86
2018-10-01T06:13:57.134Z,68.85
2018-10-01T06:14:57.155Z,68.8
2018-10-01T06:15:57.143Z,68.91
2018-10-01T06:16:57.151Z,69.13
2018-10-01T06:17:57.172Z,69.24
2018-10-01T06:18:57.142Z,69.68
2018-10-01T06:19:57.140Z,69.78
2018-10-01T06:20:57.191Z,69.71
2018-10-01T06:21:57.235Z,69.85
2018-10-01T06:22:57.118Z,70.02
2018-10-01T06:23:57.113Z,69.95
2018-10-01T06:24:57.442Z,69.89
2018-10-01T06:25:57.523Z,70.11
2018-10-01T06:26:57.114Z,69.76
2018-10-01T06:27:57.105Z,69.84
2018-10-01T06:28:57.152Z,70.09
2018-10-01T06:29:57.129Z,70.09
2018-10-01T06:30:57.201Z,70.2
2018-10-01T06:31:57.483Z,69.84
2018-10-01T06:32:59.328Z,70.03
2018-10-01T06:33:57.092Z,70.2
2018-10-01T06:34:57.192Z,69.87
2018-10-01T06:35:57.947Z,69.43
2018-10-01T06:36:57.111Z,69.84
2018-10-01T06:37:57.245Z,69.67
2018-10-01T06:38:57.528Z,69.92
2018-10-01T06:40:57.163Z,69.88
2018-10-01T06:41:57.255Z,70.1
2018-10-01T06:42:57.169Z,70.31
2018-10-01T06:43:57.099Z,70.61
2018-10-01T06:44:57.161Z,70.34
2018-10-01T06:45:57.261Z,70.37
2018-10-01T06:46:57.528Z,70.26
2018-10-01T06:47:57.123Z,70.31
2018-10-01T06:48:57.312Z,70.33
2018-10-01T06:49:57.127Z,70.11
2018-10-01T06:50:57.145Z,69.75
2018-10-01T06:51:57.079Z,69.72
2018-10-01T06:52:57.154Z,69.51
2018-10-01T06:53:57.332Z,69.83
2018-10-01T06:54:57.201Z,69.59
2018-10-01T06:55:57.140Z,69.73
2018-10-01T06:56:57.090Z,69.32
2018-10-01T06:57:57.160Z,69.46
2018-10-01T06:58:57.231Z,69.37
2018-10-01T06:59:57.069Z,69.69
2018-10-01T07:00:57.133Z,69.63
2018-10-01T07:01:57.383Z,69.72
2018-10-01T07:02:57.064Z,69.41
2018-10-01T07:03:57.095Z,69.19
2018-10-01T07:04:57.088Z,69.46
2018-10-01T07:05:57.225Z,69.62
2018-10-01T07:06:57.072Z,69.41
2018-10-01T07:07:57.128Z,69.47
2018-10-01T07:08:57.054Z,69.44
2018-10-01T07:09:57.075Z,69.37
2018-10-01T07:10:57.455Z,69.65
2018-10-01T07:11:57.050Z,69.57
2018-10-01T07:12:57.060Z,69.59
2018-10-01T07:13:57.267Z,69.68
2018-10-01T07:14:57.056Z,69.67
2018-10-01T07:15:57.106Z,69.33
2018-10-01T07:16:57.135Z,69.48
2018-10-01T07:17:57.170Z,69.39
2018-10-01T07:18:57.183Z,69.47
2018-10-01T07:19:57.108Z,69.5
2018-10-01T07:20:57.053Z,69.57
2018-10-01T07:21:57.076Z,69.79
2018-10-01T07:22:57.166Z,69.86
2018-10-01T07:23:57.061Z,70.57
2018-10-01T07:24:57.087Z,70.57
2018-10-01T07:25:57.054Z,71
2018-10-01T07:26:57.196Z,70.74
2018-10-01T07:27:57.060Z,70.87
2018-10-01T07:28:57.109Z,70.78
2018-10-01T07:29:57.375Z,71.46
2018-10-01T07:30:57.091Z,71.4
2018-10-01T07:31:57.211Z,71.54
2018-10-01T07:32:57.090Z,71.44
2018-10-01T07:33:57.061Z,71.67
2018-10-01T07:34:57.007Z,72.12
2018-10-01T07:35:57.135Z,72.01
2018-10-01T07:36:56.999Z,72.07
2018-10-01T07:37:57.124Z,72.24
2018-10-01T07:38:57.071Z,72.47
2018-10-01T07:39:57.025Z,72.6
2018-10-01T07:40:57.071Z,72.81
2018-10-01T07:41:57.066Z,73
2018-10-01T07:42:56.995Z,72.91
2018-10-01T07:43:57.009Z,72.74
2018-10-01T07:44:57.270Z,72.9
2018-10-01T07:45:57.086Z,72.58
2018-10-01T07:46:56.991Z,72.68
2018-10-01T07:47:57.016Z,73.03
2018-10-01T07:48:57.151Z,73.18
2018-10-01T07:49:57.000Z,73.17
2018-10-01T07:50:57.207Z,73.39
2018-10-01T07:51:57.046Z,73.53
2018-10-01T07:52:57.122Z,73.65
2018-10-01T07:53:56.972Z,73.71
2018-10-01T07:54:57.024Z,73.42
2018-10-01T07:55:56.993Z,73.43
2018-10-01T07:56:57.028Z,73.44
2018-10-01T07:57:57.273Z,73.72
2018-10-01T07:58:57.016Z,73.63
2018-10-01T07:59:57.483Z,73.77
2018-10-01T08:00:56.997Z,73.34
2018-10-01T08:01:57.038Z,73.61
2018-10-01T08:02:57.067Z,73.55
2018-10-01T08:03:57.043Z,73.35
2018-10-01T08:04:57.011Z,73.95
2018-10-01T08:05:56.987Z,73.99
2018-10-01T08:06:56.985Z,74.15
2018-10-01T08:07:57.038Z,73.87
2018-10-01T08:08:57.227Z,74.05
2018-10-01T08:09:57.036Z,74.09
2018-10-01T08:10:57.018Z,74.18
2018-10-01T08:11:57.024Z,74.27
2018-10-01T08:12:56.995Z,74.41
2018-10-01T08:13:57.127Z,74.52
2018-10-01T08:14:56.980Z,74.24
2018-10-01T08:15:57.001Z,74.37
2018-10-01T08:16:57.063Z,73.99
2018-10-01T08:17:57.114Z,74.11
2018-10-01T08:18:56.935Z,74.27
2018-10-01T08:19:57.094Z,74.7
2018-10-01T08:20:56.990Z,74.35
2018-10-01T08:21:56.995Z,74.25
2018-10-01T08:22:57.004Z,74.05
2018-10-01T08:23:56.945Z,74.31
2018-10-01T08:24:57.006Z,74.14
2018-10-01T08:25:57.019Z,74.32
2018-10-01T08:26:56.923Z,74.1
2018-10-01T08:27:57.362Z,74.1
2018-10-01T08:28:57.035Z,73.89
2018-10-01T08:29:57.137Z,74.18
2018-10-01T08:30:57.132Z,74.53
2018-10-01T08:31:57.203Z,73.98
2018-10-01T08:32:57.165Z,74.37
2018-10-01T08:33:57.072Z,74.09
2018-10-01T08:34:57.053Z,73.83
2018-10-01T08:35:57.061Z,74.33
2018-10-01T08:36:57.025Z,74.4
2018-10-01T08:37:57.184Z,74.3
2018-10-01T08:38:57.021Z,74.26
2018-10-01T08:39:56.927Z,74.39
2018-10-01T08:40:56.965Z,74.18
2018-10-01T08:41:56.998Z,74.29
2018-10-01T08:42:56.931Z,73.89
2018-10-01T08:43:56.993Z,73.99
2018-10-01T08:44:56.984Z,73.64
2018-10-01T08:45:56.984Z,73.83
2018-10-01T08:46:57.064Z,73.97
2018-10-01T08:47:56.966Z,73.79
2018-10-01T08:48:56.985Z,73.65
2018-10-01T08:49:56.962Z,73.47
2018-10-01T08:50:56.912Z,73.66
2018-10-01T08:51:56.973Z,73.86
2018-10-01T08:52:56.983Z,73.75
2018-10-01T08:53:56.959Z,73.17
2018-10-01T08:54:57.023Z,72.67
2018-10-01T08:55:56.971Z,72.92
2018-10-01T08:56:56.945Z,72.87
2018-10-01T08:57:57.377Z,73.1
2018-10-01T08:58:57.047Z,73.12
2018-10-01T08:59:56.896Z,72.99
2018-10-01T09:00:56.974Z,72.95
2018-10-01T09:01:56.914Z,72.28
2018-10-01T09:02:56.903Z,72.22
2018-10-01T09:03:56.966Z,71.75
2018-10-01T09:04:56.926Z,71.7
2018-10-01T09:05:56.881Z,71.93
2018-10-01T09:06:57.016Z,72.16
2018-10-01T09:07:56.867Z,72.33
2018-10-01T09:08:56.878Z,72.02
2018-10-01T09:09:57.151Z,71.31
2018-10-01T09:10:56.926Z,70.44
2018-10-01T09:11:56.951Z,70.38
2018-10-01T09:12:56.972Z,70.13
2018-10-01T09:13:56.966Z,69.78
2018-10-01T09:14:56.979Z,69.29
2018-10-01T09:15:56.890Z,68.74
2018-10-01T09:16:56.929Z,68.45
2018-10-01T09:17:56.874Z,68.94
2018-10-01T09:18:56.940Z,68.49
2018-10-01T09:19:56.883Z,68.17
2018-10-01T09:20:56.870Z,67.88
2018-10-01T09:21:57.243Z,67.67
2018-10-01T09:22:57.179Z,66.29
2018-10-01T09:23:56.882Z,66.19
2018-10-01T09:24:56.970Z,66.28
2018-10-01T09:25:56.853Z,65.92
2018-10-01T09:26:56.990Z,65.74
2018-10-01T09:27:56.929Z,65.18
2018-10-01T09:28:57.000Z,65.06
2018-10-01T09:29:56.938Z,64.9
2018-10-01T09:30:56.995Z,64.97
2018-10-01T09:31:56.865Z,64.84
2018-10-01T09:32:56.942Z,64.57
2018-10-01T09:33:57.086Z,64.75
2018-10-01T09:35:57.319Z,64.63
2018-10-01T09:36:56.927Z,64.07
2018-10-01T09:37:56.917Z,63.85
2018-10-01T09:38:57.665Z,63.42
2018-10-01T09:39:56.909Z,63.2
2018-10-01T09:40:56.973Z,63.46
2018-10-01T09:41:57.012Z,63.83
2018-10-01T09:42:57.028Z,64.55
2018-10-01T09:43:56.856Z,64.87
2018-10-01T09:44:56.836Z,64.56
2018-10-01T09:45:57.122Z,64.93
2018-10-01T09:46:57.009Z,64.95
2018-10-01T09:47:58.849Z,65.24
2018-10-01T09:48:56.899Z,65
2018-10-01T09:49:57.006Z,65.45
2018-10-01T09:50:56.905Z,65.6
2018-10-01T09:51:58.058Z,65.12
2018-10-01T09:52:59.328Z,64.58
2018-10-01T09:53:56.930Z,65.26
2018-10-01T09:54:58.263Z,64.74
2018-10-01T09:55:57.470Z,64.71
2018-10-01T09:56:57.154Z,64.63
2018-10-01T09:57:58.135Z,64.25
2018-10-01T09:58:56.955Z,64.33
2018-10-01T09:59:56.825Z,64.44
2018-10-01T10:00:57.179Z,64.08
2018-10-01T10:01:56.996Z,63.95
2018-10-01T10:02:57.086Z,63.87
2018-10-01T10:03:57.005Z,63.5
2018-10-01T10:04:57.333Z,63.36
2018-10-01T10:05:57.048Z,63.24
2018-10-01T10:06:57.023Z,63.04
2018-10-01T10:07:57.440Z,63.31
2018-10-01T10:08:56.958Z,63.33
2018-10-01T10:09:57.049Z,63.29
2018-10-01T10:10:57.043Z,62.67
2018-10-01T10:11:57.053Z,62.57
2018-10-01T10:12:56.956Z,62.5
2018-10-01T10:13:56.999Z,62.22
2018-10-01T10:14:57.069Z,62.32
2018-10-01T10:15:56.812Z,61.81
2018-10-01T10:16:57.150Z,62.07
2018-10-01T10:17:56.903Z,61.51
2018-10-01T10:18:56.942Z,61.58
2018-10-01T10:19:57.162Z,60.42
2018-10-01T10:20:57.104Z,60.1
2018-10-01T10:21:57.018Z,59.72
2018-10-01T10:22:57.030Z,60.33
2018-10-01T10:23:57.230Z,59.97
2018-10-01T10:24:57.143Z,59.93
2018-10-01T10:25:56.957Z,60.17
2018-10-01T10:26:56.853Z,59.92
2018-10-01T10:27:56.868Z,59.38
2018-10-01T10:28:57.088Z,59.87
2018-10-01T10:29:57.063Z,59.69
2018-10-01T10:30:56.803Z,59.44
2018-10-01T10:31:56.780Z,59.19
2018-10-01T10:32:56.766Z,58.93
2018-10-01T10:33:56.906Z,59.24
2018-10-01T10:34:56.772Z,58.72
2018-10-01T10:35:56.798Z,58.44
2018-10-01T10:36:57.111Z,58.06
2018-10-01T10:37:56.811Z,58.24
2018-10-01T10:38:57.021Z,58.04
2018-10-01T10:39:56.770Z,57.69
2018-10-01T10:40:56.746Z,57.2
2018-10-01T10:41:56.881Z,57.17
2018-10-01T10:42:56.757Z,56.86
2018-10-01T10:43:56.805Z,56.67
2018-10-01T10:44:56.865Z,56.68
2018-10-01T10:45:57.020Z,56.3
2018-10-01T10:46:56.750Z,54.47
2018-10-01T10:47:57.001Z,53.74
2018-10-01T10:48:56.752Z,54.02
2018-10-01T10:50:57.128Z,53.89
2018-10-01T10:51:56.817Z,53.94
2018-10-01T10:52:57.104Z,53.76
2018-10-01T10:53:57.125Z,53.83
2018-10-01T10:54:57.050Z,54.09
2018-10-01T10:55:56.759Z,54.01
2018-10-01T10:56:56.806Z,54.2
2018-10-01T10:57:56.815Z,53.68
2018-10-01T10:58:56.801Z,53.04
2018-10-01T10:59:56.858Z,52.67
2018-10-01T11:00:57.003Z,51.54
2018-10-01T11:01:56.559Z,51.94
2018-10-01T11:02:56.708Z,52.33
2018-10-01T11:03:57.092Z,52.33
2018-10-01T11:04:56.690Z,52.15
2018-10-01T11:05:57.121Z,52.07
2018-10-01T11:06:57.034Z,52.04
2018-10-01T11:07:56.748Z,52.32
2018-10-01T11:08:56.785Z,52.41
2018-10-01T11:09:56.810Z,52.48
2018-10-01T11:10:56.708Z,52.75
2018-10-01T11:11:56.842Z,52.95
2018-10-01T11:12:56.909Z,53.49
2018-10-01T11:13:56.837Z,53.49
2018-10-01T11:14:57.011Z,53.63
2018-10-01T11:15:56.706Z,54.36
2018-10-01T11:16:57.099Z,54.55
2018-10-01T11:17:58.194Z,54.7
2018-10-01T11:18:56.904Z,54.68
2018-10-01T11:19:56.887Z,54.87
2018-10-01T11:20:56.807Z,54.73
2018-10-01T11:21:56.913Z,54.91
2018-10-01T11:22:56.934Z,54.68
2018-10-01T11:23:57.053Z,54.85
2018-10-01T11:24:56.779Z,55.22
2018-10-01T11:25:56.750Z,55.03
2018-10-01T11:26:57.165Z,55.32
2018-10-01T11:27:56.875Z,55.4
2018-10-01T11:28:56.829Z,55.48
2018-10-01T11:29:57.555Z,55.5
2018-10-01T11:30:56.737Z,55.73
2018-10-01T11:31:56.811Z,55.29
2018-10-01T11:32:57.051Z,55.49
2018-10-01T11:34:57.080Z,55.83
2018-10-01T11:35:56.721Z,55.93
2018-10-01T11:36:56.665Z,55.99
2018-10-01T11:37:56.732Z,56.07
2018-10-01T11:38:56.847Z,56.33
2018-10-01T11:39:56.957Z,56.18
2018-10-01T11:40:56.792Z,56.29
2018-10-01T11:41:56.737Z,56.44
2018-10-01T11:42:56.836Z,56.69
2018-10-01T11:43:56.973Z,56.59
2018-10-01T11:44:56.776Z,56.6
2018-10-01T11:45:56.828Z,56.45
2018-10-01T11:46:56.636Z,56.27
2018-10-01T11:47:56.756Z,56.49
2018-10-01T11:48:56.649Z,56.78
2018-10-01T11:49:56.741Z,56.53
2018-10-01T11:50:56.744Z,56.71
2018-10-01T11:51:56.806Z,56.6
2018-10-01T11:52:56.815Z,56.84
2018-10-01T11:53:56.946Z,56.8
2018-10-01T11:54:56.634Z,56.82
2018-10-01T11:55:57.156Z,56.99
2018-10-01T11:56:56.659Z,56.82
2018-10-01T11:57:56.697Z,56.56
2018-10-01T11:58:56.766Z,56.8
2018-10-01T11:59:56.707Z,56.93
2018-10-01T12:00:56.677Z,56.93
2018-10-01T12:01:56.687Z,56.69
2018-10-01T12:02:56.646Z,56.43
2018-10-01T12:05:56.670Z,57.07
2018-10-01T12:06:56.644Z,56.84
2018-10-01T12:07:56.714Z,56.52
2018-10-01T12:08:56.718Z,56.61
2018-10-01T12:09:57.261Z,56.72
2018-10-01T12:10:56.754Z,56.59
2018-10-01T12:11:56.741Z,56.7
2018-10-01T12:12:56.838Z,56.53
2018-10-01T12:13:56.962Z,56.23
2018-10-01T12:14:56.738Z,56.32
2018-10-01T12:15:56.885Z,56.02
2018-10-01T12:16:56.771Z,56.36
2018-10-01T12:17:56.677Z,56.46
2018-10-01T12:18:56.728Z,56.16
2018-10-01T12:19:56.693Z,56.06
2018-10-01T12:20:57.040Z,56.11
2018-10-01T12:21:56.633Z,56.48
2018-10-01T12:22:56.852Z,56.65
2018-10-01T12:24:56.637Z,56.57
2018-10-01T12:25:56.741Z,56.41
2018-10-01T12:26:56.714Z,56.63
2018-10-01T12:27:56.906Z,56.91
2018-10-01T12:28:56.930Z,56.92
2018-10-01T12:29:56.859Z,56.69
2018-10-01T12:30:56.775Z,56.83
2018-10-01T12:31:56.643Z,56.83
2018-10-01T12:32:56.650Z,56.99
2018-10-01T12:33:56.721Z,56.87
2018-10-01T12:34:56.682Z,55.8
2018-10-01T12:35:56.615Z,55.62
2018-10-01T12:36:56.934Z,55.71
2018-10-01T12:37:57.136Z,55.89
2018-10-01T12:38:56.749Z,56.13
2018-10-01T12:39:56.957Z,56.11
2018-10-01T12:41:56.559Z,55.84
2018-10-01T12:42:56.311Z,55.58
2018-10-01T12:43:56.962Z,55.55
2018-10-01T12:44:56.762Z,55.6
2018-10-01T12:45:56.659Z,54.78
2018-10-01T12:46:56.608Z,54.65
2018-10-01T12:47:56.602Z,54.75
2018-10-01T12:48:56.606Z,54.59
2018-10-01T12:49:56.602Z,54.61
2018-10-01T12:50:56.972Z,54.54
2018-10-01T12:51:56.727Z,54.1
2018-10-01T12:52:56.820Z,54.18
2018-10-01T12:53:56.697Z,53.12
2018-10-01T12:54:56.639Z,53.44
2018-10-01T12:55:56.750Z,53.92
2018-10-01T12:56:56.616Z,53.51
2018-10-01T12:57:56.544Z,53.38
2018-10-01T12:58:56.860Z,53.35
2018-10-01T12:59:56.606Z,53.49
2018-10-01T13:00:56.581Z,53.51
2018-10-01T13:01:56.796Z,53.71
2018-10-01T13:02:56.841Z,53.54
2018-10-01T13:03:56.571Z,53.16
2018-10-01T13:04:56.719Z,53.09